Time;durP1;ratioP1;P1;durP2;ratioP2;P2;SDS_P1;SDS_P2;PMS_P1;PMS_P2;Temp;Humidity;BMP_temperature;BMP_pressure;BME280_temperature;BME280_humidity;BME280_pressure;Samples;Min_cycle;Max_cycle;Signal;HPM_P1;HPM_P2
2023/04/24 00:02:23;;;;;;;;;;;;;;;20.01;40.32;100676.81;103907;1282;62191;-81
2023/04/24 00:04:49;;;;;;;;;;;;;;;20.01;40.37;100679.52;103899;1282;62191;-82
2023/04/24 00:07:16;;;;;;;;;;;;;;;20.01;40.44;100677.54;103841;1282;62121;-83
2023/04/24 00:09:42;;;;;;;;;;;;;;;20.01;40.36;100680.60;103777;1283;72370;-82
2023/04/24 00:12:08;;;;;;;;;;;;;;;20.00;40.34;100679.74;103770;1283;62247;-83
2023/04/24 00:14:34;;;;;;;;;;;;;;;20.00;40.39;100679.73;103777;1286;62293;-82
2023/04/24 00:17:02;;;;;;;;;;;;;;;20.01;40.31;100679.02;103822;1286;62187;-83
2023/04/24 00:19:28;;;;;;;;;;;;;;;20.00;40.34;100676.19;103756;1282;62273;-83
2023/04/24 00:21:54;;;;;;;;;;;;;;;20.00;40.48;100676.16;103777;1288;62194;-83
2023/04/24 00:24:20;;;;;;;;;;;;;;;20.00;40.26;100671.89;103826;1282;62286;-82
2023/04/24 00:26:45;;;;;;;;;;;;;;;20.00;40.32;100667.98;103860;1286;62200;-83
2023/04/24 00:29:11;;;;;;;;;;;;;;;19.99;40.22;100666.77;103780;1283;62280;-83
2023/04/24 00:31:36;;;;;;;;;;;;;;;19.99;40.48;100663.90;103836;1288;62175;-83
2023/04/24 00:34:02;;;;;;;;;;;;;;;19.99;40.50;100664.13;103784;1282;63140;-83
2023/04/24 00:36:28;;;;;;;;;;;;;;;20.00;40.38;100661.56;103819;1284;62100;-83
2023/04/24 00:38:54;;;;;;;;;;;;;;;19.99;40.32;100660.17;103849;1282;62165;-83
2023/04/24 00:41:21;;;;;;;;;;;;;;;19.99;40.30;100660.39;103834;1283;62606;-83
2023/04/24 00:43:47;;;;;;;;;;;;;;;19.99;40.24;100659.10;103715;1288;62181;-83
2023/04/24 00:46:12;;;;;;;;;;;;;;;19.99;40.36;100659.86;103707;1283;62280;-83
2023/04/24 00:48:41;;;;;;;;;;;;;;;19.98;40.36;100662.19;103751;1287;62165;-83
2023/04/24 00:51:07;;;;;;;;;;;;;;;19.98;40.51;100659.86;103797;1288;62095;-83
2023/04/24 00:53:32;;;;;;;;;;;;;;;19.98;40.42;100659.34;103792;1283;63951;-83
2023/04/24 00:55:59;;;;;;;;;;;;;;;19.99;40.41;100658.08;103732;1283;62137;-82
2023/04/24 00:58:24;;;;;;;;;;;;;;;19.98;40.40;100655.41;103825;1283;62128;-83
2023/04/24 01:00:52;;;;;;;;;;;;;;;19.98;40.35;100655.63;103813;1283;62250;-83
2023/04/24 01:03:20;;;;;;;;;;;;;;;19.98;40.43;100656.16;103867;1284;73415;-83
2023/04/24 01:05:45;;;;;;;;;;;;;;;19.98;40.55;100654.91;103673;1285;75279;-83
2023/04/24 01:08:11;;;;;;;;;;;;;;;19.98;40.40;100651.14;103787;1282;62218;-83
2023/04/24 01:10:37;;;;;;;;;;;;;;;19.98;40.50;100652.56;103809;1283;63169;-83
2023/04/24 01:13:03;;;;;;;;;;;;;;;19.98;40.36;100648.99;103774;1282;62182;-83
2023/04/24 01:15:29;;;;;;;;;;;;;;;19.98;40.41;100644.02;103825;1286;62841;-82
2023/04/24 01:17:55;;;;;;;;;;;;;;;19.98;40.44;100644.56;103722;1288;62181;-83
2023/04/24 01:20:21;;;;;;;;;;;;;;;19.97;40.27;100643.17;103821;1282;63260;-83
2023/04/24 01:22:47;;;;;;;;;;;;;;;19.98;40.27;100641.17;103753;1282;62183;-83
2023/04/24 01:25:13;;;;;;;;;;;;;;;19.97;40.53;100636.56;103863;1286;73384;-84
2023/04/24 01:27:39;;;;;;;;;;;;;;;19.97;40.46;100637.81;103780;1282;76080;-82
2023/04/24 01:30:06;;;;;;;;;;;;;;;19.97;40.46;100632.10;103720;1288;62341;-83
2023/04/24 01:32:31;;;;;;;;;;;;;;;19.97;40.37;100629.43;103774;1283;63900;-83
2023/04/24 01:34:57;;;;;;;;;;;;;;;19.96;40.53;100629.81;103743;1288;62187;-83
2023/04/24 01:37:22;;;;;;;;;;;;;;;19.96;40.41;100626.07;103846;1282;62148;-83
2023/04/24 01:39:48;;;;;;;;;;;;;;;19.97;40.48;100624.80;103838;1282;63334;-83
2023/04/24 01:42:14;;;;;;;;;;;;;;;19.96;40.37;100626.27;103805;1285;62213;-82
2023/04/24 01:44:40;;;;;;;;;;;;;;;19.96;40.52;100625.55;103812;1282;62278;-82
2023/04/24 01:47:05;;;;;;;;;;;;;;;19.96;40.49;100623.23;103675;1282;62225;-84
2023/04/24 01:49:31;;;;;;;;;;;;;;;19.96;40.33;100623.98;103841;1283;62164;-83
2023/04/24 01:51:57;;;;;;;;;;;;;;;19.95;40.27;100621.50;103694;1282;62185;-84
2023/04/24 01:54:22;;;;;;;;;;;;;;;19.95;40.43;100618.45;103720;1282;63400;-83
2023/04/24 01:56:48;;;;;;;;;;;;;;;19.96;40.27;100617.55;103765;1286;62111;-82
2023/04/24 01:59:14;;;;;;;;;;;;;;;19.95;40.31;100617.95;103595;1282;62120;-83
2023/04/24 02:01:40;;;;;;;;;;;;;;;19.95;40.36;100616.52;103787;1283;62564;-83
2023/04/24 02:04:05;;;;;;;;;;;;;;;19.95;40.40;100618.11;103767;1283;62155;-83
2023/04/24 02:06:31;;;;;;;;;;;;;;;19.95;40.41;100616.00;103803;1282;62149;-82
2023/04/24 02:08:57;;;;;;;;;;;;;;;19.94;40.26;100615.67;103636;1283;62814;-83
2023/04/24 02:11:23;;;;;;;;;;;;;;;19.94;40.41;100612.09;103856;1288;62099;-84
2023/04/24 02:13:49;;;;;;;;;;;;;;;19.95;40.43;100607.62;103624;1288;62188;-83
2023/04/24 02:16:15;;;;;;;;;;;;;;;19.95;40.42;100604.05;103836;1282;62340;-83
2023/04/24 02:18:40;;;;;;;;;;;;;;;19.94;40.30;100600.70;103658;1284;62236;-82
2023/04/24 02:21:06;;;;;;;;;;;;;;;19.94;40.44;100599.26;103793;1282;62062;-84
2023/04/24 02:23:35;;;;;;;;;;;;;;;19.94;40.41;100600.86;103700;1283;62135;-83
2023/04/24 02:26:00;;;;;;;;;;;;;;;19.94;40.43;100597.13;103750;1286;62247;-83
2023/04/24 02:28:25;;;;;;;;;;;;;;;19.93;40.28;100594.45;103760;1283;62102;-82
2023/04/24 02:30:51;;;;;;;;;;;;;;;19.93;40.39;100592.52;103787;1288;62194;-82
2023/04/24 02:33:17;;;;;;;;;;;;;;;19.93;40.40;100588.96;103848;1282;62797;-83
2023/04/24 02:35:42;;;;;;;;;;;;;;;19.93;40.48;100587.35;103701;1288;75137;-83
2023/04/24 02:38:08;;;;;;;;;;;;;;;19.93;40.28;100587.35;103822;1282;62242;-82
2023/04/24 02:40:34;;;;;;;;;;;;;;;19.92;40.48;100589.89;103779;1283;62167;-82
2023/04/24 02:43:00;;;;;;;;;;;;;;;19.92;40.39;100585.77;103698;1282;62667;-83
2023/04/24 02:45:25;;;;;;;;;;;;;;;19.92;40.27;100589.20;103750;1283;62248;-82
2023/04/24 02:47:51;;;;;;;;;;;;;;;19.92;40.42;100591.69;103843;1288;62112;-83
2023/04/24 02:50:18;;;;;;;;;;;;;;;19.92;40.34;100596.14;103791;1283;63301;-83
2023/04/24 02:52:44;;;;;;;;;;;;;;;19.92;40.36;100598.48;103799;1283;62188;-82
2023/04/24 02:55:10;;;;;;;;;;;;;;;19.92;40.41;100599.04;103752;1288;62200;-83
2023/04/24 02:57:36;;;;;;;;;;;;;;;19.92;40.51;100601.19;103787;1288;63433;-82
2023/04/24 03:00:03;;;;;;;;;;;;;;;19.92;40.31;100601.01;103757;1288;62149;-83
2023/04/24 03:02:28;;;;;;;;;;;;;;;19.91;40.29;100598.36;103603;1283;62274;-83
2023/04/24 03:04:54;;;;;;;;;;;;;;;19.91;40.38;100591.20;103763;1283;62105;-83
2023/04/24 03:07:20;;;;;;;;;;;;;;;19.91;40.47;100590.70;103759;1287;62927;-83
2023/04/24 03:09:46;;;;;;;;;;;;;;;19.92;40.35;100587.28;103683;1283;62167;-83
2023/04/24 03:12:12;;;;;;;;;;;;;;;19.91;40.43;100585.88;103743;1282;62043;-82
2023/04/24 03:14:37;;;;;;;;;;;;;;;19.91;40.37;100586.95;103701;1283;63364;-83
2023/04/24 03:17:03;;;;;;;;;;;;;;;19.90;40.42;100584.11;103623;1283;62577;-82
2023/04/24 03:19:31;;;;;;;;;;;;;;;19.90;40.38;100588.23;103742;1288;62148;-84
2023/04/24 03:21:56;;;;;;;;;;;;;;;19.90;40.42;100588.42;103730;1288;62219;-82
2023/04/24 03:24:22;;;;;;;;;;;;;;;19.90;40.46;100588.09;103677;1283;62242;-82
2023/04/24 03:26:47;;;;;;;;;;;;;;;19.89;40.35;100585.81;103841;1288;62187;-83
2023/04/24 03:29:13;;;;;;;;;;;;;;;19.90;40.52;100585.22;103803;1288;62290;-82
2023/04/24 03:31:38;;;;;;;;;;;;;;;19.89;40.45;100587.58;103705;1285;62824;-83
2023/04/24 03:34:04;;;;;;;;;;;;;;;19.90;40.38;100587.56;103807;1283;63252;-82
2023/04/24 03:36:30;;;;;;;;;;;;;;;19.89;40.37;100589.77;103742;1282;62120;-82
2023/04/24 03:38:56;;;;;;;;;;;;;;;19.90;40.35;100595.42;103828;1288;62101;-82
2023/04/24 03:41:22;;;;;;;;;;;;;;;19.89;40.33;100593.01;103802;1288;62807;-82
2023/04/24 03:43:48;;;;;;;;;;;;;;;19.89;40.42;100590.70;103669;1283;82604;-83
2023/04/24 03:46:16;;;;;;;;;;;;;;;19.88;40.51;100588.92;103818;1283;62193;-82
2023/04/24 03:48:41;;;;;;;;;;;;;;;19.89;40.40;100594.42;103739;1288;62159;-83
2023/04/24 03:51:07;;;;;;;;;;;;;;;19.88;40.35;100602.90;103812;1288;62130;-83
2023/04/24 03:53:32;;;;;;;;;;;;;;;19.88;40.54;100604.70;103753;1288;62244;-83
2023/04/24 03:55:58;;;;;;;;;;;;;;;19.88;40.26;100608.09;103723;1283;62648;-84
2023/04/24 03:58:24;;;;;;;;;;;;;;;19.87;40.24;100614.04;103833;1283;63288;-83
2023/04/24 04:00:50;;;;;;;;;;;;;;;19.87;40.35;100619.23;103806;1282;62187;-83
2023/04/24 04:03:16;;;;;;;;;;;;;;;19.86;40.58;100617.52;103706;1288;62193;-82
2023/04/24 04:05:41;;;;;;;;;;;;;;;19.85;40.33;100621.64;103742;1283;62264;-83
2023/04/24 04:08:07;;;;;;;;;;;;;;;19.85;40.38;100621.67;103790;1283;62625;-83
2023/04/24 04:10:32;;;;;;;;;;;;;;;19.84;40.38;100626.89;103870;1283;62118;-82
2023/04/24 04:12:58;;;;;;;;;;;;;;;19.83;40.37;100628.02;103954;1283;62257;-83
2023/04/24 04:15:23;;;;;;;;;;;;;;;19.83;40.22;100627.73;103833;1288;62193;-82
2023/04/24 04:17:50;;;;;;;;;;;;;;;19.82;40.29;100627.09;103813;1282;76606;-82
2023/04/24 04:20:16;;;;;;;;;;;;;;;19.80;40.38;100628.39;103895;1288;63782;-84
2023/04/24 04:22:41;;;;;;;;;;;;;;;19.79;40.24;100629.70;103926;1282;62241;-83
2023/04/24 04:25:08;;;;;;;;;;;;;;;19.79;40.31;100627.06;103942;1288;62177;-83
2023/04/24 04:27:34;;;;;;;;;;;;;;;19.78;40.23;100626.59;103871;1283;63246;-82
2023/04/24 04:30:04;;;;;;;;;;;;;;;19.77;40.26;100626.80;103889;1283;62121;-84
2023/04/24 04:32:33;;;;;;;;;;;;;;;19.76;40.22;100625.27;103759;1283;62168;-84
2023/04/24 04:35:02;;;;;;;;;;;;;;;19.75;40.06;100627.48;104281;1288;72455;-82
2023/04/24 04:37:29;;;;;;;;;;;;;;;19.73;40.08;100623.86;104275;1288;76264;-82
2023/04/24 04:39:55;;;;;;;;;;;;;;;19.72;40.10;100623.05;103905;1283;63302;-83
2023/04/24 04:42:20;;;;;;;;;;;;;;;19.70;40.20;100617.60;104055;1282;62187;-82
2023/04/24 04:44:46;;;;;;;;;;;;;;;19.70;39.99;100619.80;104139;1283;62164;-83
2023/04/24 04:47:12;;;;;;;;;;;;;;;19.69;40.04;100623.42;104098;1288;64321;-82
2023/04/24 04:49:38;;;;;;;;;;;;;;;19.68;40.12;100621.73;103916;1282;62255;-84
2023/04/24 04:52:03;;;;;;;;;;;;;;;19.66;39.99;100623.13;104031;1288;62229;-82
2023/04/24 04:54:29;;;;;;;;;;;;;;;19.63;39.91;100619.35;104285;1288;62327;-83
2023/04/24 04:56:55;;;;;;;;;;;;;;;19.60;39.85;100621.71;104542;1282;62123;-83
2023/04/24 04:59:20;;;;;;;;;;;;;;;19.58;39.72;100622.35;104383;1285;65250;-83
2023/04/24 05:01:46;;;;;;;;;;;;;;;19.58;39.79;100626.88;104609;1282;62199;-84
2023/04/24 05:04:11;;;;;;;;;;;;;;;19.55;39.81;100624.20;104426;1285;61962;-83
2023/04/24 05:06:37;;;;;;;;;;;;;;;19.53;39.81;100621.46;104252;1286;63341;-83
2023/04/24 05:09:03;;;;;;;;;;;;;;;19.53;39.85;100620.05;104641;1286;62175;-82
2023/04/24 05:11:30;;;;;;;;;;;;;;;19.53;39.76;100616.65;104545;1286;63468;-82
2023/04/24 05:13:55;;;;;;;;;;;;;;;19.53;39.83;100615.41;104621;1291;62585;-82
2023/04/24 05:16:21;;;;;;;;;;;;;;;19.52;40.03;100610.62;104446;1286;62194;-82
2023/04/24 05:18:47;;;;;;;;;;;;;;;19.52;39.92;100613.29;104159;1288;62255;-83
2023/04/24 05:21:12;;;;;;;;;;;;;;;19.53;39.74;100611.13;104162;1286;62168;-82
2023/04/24 05:23:38;;;;;;;;;;;;;;;19.53;39.79;100612.73;104484;1286;62286;-82
2023/04/24 05:26:03;;;;;;;;;;;;;;;19.53;39.92;100612.39;104622;1286;62246;-82
2023/04/24 05:28:29;;;;;;;;;;;;;;;19.53;39.85;100614.52;104557;1286;62529;-82
2023/04/24 05:30:55;;;;;;;;;;;;;;;19.53;39.62;100615.41;104533;1286;63422;-82
2023/04/24 05:33:21;;;;;;;;;;;;;;;19.53;39.65;100614.15;104600;1286;62341;-81
2023/04/24 05:35:47;;;;;;;;;;;;;;;19.52;39.74;100616.70;104598;1286;75052;-82
2023/04/24 05:38:13;;;;;;;;;;;;;;;19.54;39.68;100615.89;104745;1288;62177;-82
2023/04/24 05:40:38;;;;;;;;;;;;;;;19.55;39.73;100620.27;104972;1283;62264;-81
2023/04/24 05:43:04;;;;;;;;;;;;;;;19.56;39.58;100620.00;104839;1286;62138;-81
2023/04/24 05:45:29;;;;;;;;;;;;;;;19.56;39.61;100621.98;105222;1283;62207;-82
2023/04/24 05:47:55;;;;;;;;;;;;;;;19.58;39.69;100621.69;105286;1283;76215;-82
2023/04/24 05:50:20;;;;;;;;;;;;;;;19.58;39.52;100621.13;105234;1286;62169;-80
2023/04/24 05:52:46;;;;;;;;;;;;;;;19.57;39.63;100619.95;105598;1282;62143;-81
2023/04/24 05:55:11;;;;;;;;;;;;;;;19.45;39.45;100621.63;105499;1283;62213;-81
2023/04/24 05:57:37;;;;;;;;;;;;;;;19.30;39.48;100626.39;105608;1285;62277;-81
2023/04/24 06:00:04;;;;;;;;;;;;;;;19.22;39.71;100621.72;105649;1282;75153;-81
2023/04/24 06:02:32;;;;;;;;;;;;;;;19.19;39.66;100621.42;105583;1285;62497;-81
2023/04/24 06:05:00;;;;;;;;;;;;;;;19.10;39.64;100620.02;105601;1283;62003;-82
2023/04/24 06:07:29;;;;;;;;;;;;;;;19.01;39.49;100616.14;105526;1282;73428;-81
2023/04/24 06:09:55;;;;;;;;;;;;;;;18.90;39.60;100616.33;105562;1288;75331;-81
2023/04/24 06:12:20;;;;;;;;;;;;;;;18.83;39.66;100617.98;105737;1286;62024;-81
2023/04/24 06:14:46;;;;;;;;;;;;;;;18.91;39.68;100617.36;105835;1282;60397;-81
2023/04/24 06:17:11;;;;;;;;;;;;;;;18.99;39.86;100617.90;105848;1288;62521;-81
2023/04/24 06:19:36;;;;;;;;;;;;;;;19.07;39.83;100619.15;105596;1283;62069;-81
2023/04/24 06:22:02;;;;;;;;;;;;;;;19.03;39.48;100617.44;105545;1286;75547;-82
2023/04/24 06:24:28;;;;;;;;;;;;;;;18.90;39.33;100617.79;105629;1283;62154;-82
2023/04/24 06:26:54;;;;;;;;;;;;;;;18.90;39.53;100611.66;105634;1283;61818;-82
2023/04/24 06:29:19;;;;;;;;;;;;;;;18.97;39.53;100615.19;105483;1287;59996;-81
2023/04/24 06:31:45;;;;;;;;;;;;;;;19.05;39.68;100617.16;105087;1282;62178;-81
2023/04/24 06:34:10;;;;;;;;;;;;;;;19.13;39.64;100613.42;105284;1288;62057;-81
2023/04/24 06:36:36;;;;;;;;;;;;;;;19.21;39.48;100611.46;105186;1283;62212;-81
2023/04/24 06:39:01;;;;;;;;;;;;;;;19.27;39.40;100607.52;104896;1283;62079;-81
2023/04/24 06:41:29;;;;;;;;;;;;;;;19.30;39.45;100601.41;104907;1288;60261;-81
2023/04/24 06:43:54;;;;;;;;;;;;;;;19.35;39.48;100604.63;104937;1288;62092;-81
2023/04/24 06:46:23;;;;;;;;;;;;;;;19.41;39.22;100597.52;105057;1283;62207;-82
2023/04/24 06:48:49;;;;;;;;;;;;;;;19.45;39.27;100596.85;105089;1284;62117;-81
2023/04/24 06:51:15;;;;;;;;;;;;;;;19.44;39.24;100595.33;105218;1282;62120;-81
2023/04/24 06:53:40;;;;;;;;;;;;;;;19.39;39.02;100592.98;105217;1288;62038;-82
2023/04/24 06:56:06;;;;;;;;;;;;;;;19.26;38.92;100587.59;105535;1288;62114;-82
2023/04/24 06:58:31;;;;;;;;;;;;;;;19.22;39.04;100586.26;105374;1282;62075;-82
2023/04/24 07:00:57;;;;;;;;;;;;;;;19.18;38.95;100586.67;105429;1284;62053;-83
2023/04/24 07:03:22;;;;;;;;;;;;;;;19.10;39.04;100589.16;105101;1283;62349;-83
2023/04/24 07:05:49;;;;;;;;;;;;;;;19.00;39.07;100586.13;104720;1288;623958;-82
2023/04/24 07:08:16;;;;;;;;;;;;;;;18.85;39.13;100584.52;106782;1283;60079;-83
2023/04/24 07:10:42;;;;;;;;;;;;;;;18.82;39.18;100581.89;106623;1283;60227;-82
2023/04/24 07:13:08;;;;;;;;;;;;;;;18.86;39.25;100582.35;106626;1283;60181;-83
2023/04/24 07:15:34;;;;;;;;;;;;;;;18.91;39.40;100587.73;106701;1282;60991;-82
2023/04/24 07:18:00;;;;;;;;;;;;;;;18.94;39.33;100587.52;106611;1282;60153;-82
2023/04/24 07:20:25;;;;;;;;;;;;;;;18.95;39.45;100590.00;106697;1287;60430;-82
2023/04/24 07:22:51;;;;;;;;;;;;;;;18.97;39.27;100590.73;106894;1283;60347;-82
2023/04/24 07:25:17;;;;;;;;;;;;;;;19.04;39.63;100592.78;106829;1287;73420;-82
2023/04/24 07:27:42;;;;;;;;;;;;;;;19.11;39.39;100596.62;105255;1288;62170;-81
2023/04/24 07:30:08;;;;;;;;;;;;;;;19.18;39.51;100601.16;105417;1288;62103;-82
2023/04/24 07:32:35;;;;;;;;;;;;;;;19.25;39.54;100601.75;105202;1285;62035;-83
2023/04/24 07:35:00;;;;;;;;;;;;;;;19.31;39.62;100601.02;105226;1288;61360;-82
2023/04/24 07:37:26;;;;;;;;;;;;;;;19.35;39.41;100605.35;105293;1283;61893;-82
2023/04/24 07:39:52;;;;;;;;;;;;;;;19.41;39.61;100608.86;105403;1283;76168;-81
2023/04/24 07:42:17;;;;;;;;;;;;;;;19.47;39.58;100604.24;105337;1283;62219;-81
2023/04/24 07:44:43;;;;;;;;;;;;;;;19.52;39.59;100605.63;105540;1283;61999;-83
2023/04/24 07:47:08;;;;;;;;;;;;;;;19.57;39.54;100604.23;105561;1282;62133;-82
2023/04/24 07:49:34;;;;;;;;;;;;;;;19.61;39.50;100610.42;105373;1283;62026;-82
2023/04/24 07:52:02;;;;;;;;;;;;;;;19.59;39.49;100608.21;105341;1288;75284;-82
2023/04/24 07:54:28;;;;;;;;;;;;;;;19.43;39.36;100611.24;105316;1282;61822;-82
2023/04/24 07:56:54;;;;;;;;;;;;;;;19.34;39.40;100611.48;105383;1288;62248;-82
2023/04/24 07:59:20;;;;;;;;;;;;;;;19.35;39.60;100611.97;105203;1287;62064;-82
2023/04/24 08:01:46;;;;;;;;;;;;;;;19.35;39.53;100607.18;104854;1287;62139;-82
2023/04/24 08:04:11;;;;;;;;;;;;;;;19.36;39.52;100609.41;105016;1288;62100;-82
2023/04/24 08:06:36;;;;;;;;;;;;;;;19.38;39.71;100608.56;105034;1288;62071;-82
2023/04/24 08:09:02;;;;;;;;;;;;;;;19.40;39.58;100607.86;105377;1283;62187;-83
2023/04/24 08:11:27;;;;;;;;;;;;;;;19.44;39.75;100608.46;105418;1288;62174;-82
2023/04/24 08:13:54;;;;;;;;;;;;;;;19.42;39.67;100607.55;105441;1288;62283;-82
2023/04/24 08:16:20;;;;;;;;;;;;;;;19.39;39.58;100609.94;106516;1283;60013;-82
2023/04/24 08:18:45;;;;;;;;;;;;;;;19.40;39.74;100607.34;106729;1283;60301;-82
2023/04/24 08:21:12;;;;;;;;;;;;;;;19.42;39.69;100604.88;106775;1288;60323;-82
2023/04/24 08:23:38;;;;;;;;;;;;;;;19.44;39.75;100603.85;106490;1287;72423;-81
2023/04/24 08:26:04;;;;;;;;;;;;;;;19.49;39.66;100599.98;104951;1287;62196;-82
2023/04/24 08:28:29;;;;;;;;;;;;;;;19.53;39.87;100600.94;105063;1286;62196;-82
2023/04/24 08:30:55;;;;;;;;;;;;;;;19.57;39.85;100595.11;105239;1288;62085;-82
2023/04/24 08:33:24;;;;;;;;;;;;;;;19.62;39.71;100590.00;105166;1288;62257;-83
2023/04/24 08:35:49;;;;;;;;;;;;;;;19.65;39.68;100589.07;105084;1282;72896;-82
2023/04/24 08:38:15;;;;;;;;;;;;;;;19.66;39.65;100590.07;105293;1288;62146;-82
2023/04/24 08:40:41;;;;;;;;;;;;;;;19.57;39.38;100584.27;105385;1285;61144;-82
2023/04/24 08:43:06;;;;;;;;;;;;;;;19.49;39.42;100582.48;105660;1283;62174;-82
2023/04/24 08:45:32;;;;;;;;;;;;;;;19.48;39.51;100579.17;105722;1288;60211;-82
2023/04/24 08:47:57;;;;;;;;;;;;;;;19.46;39.44;100578.06;105531;1283;62098;-82
2023/04/24 08:50:23;;;;;;;;;;;;;;;19.38;39.26;100578.77;105645;1289;60500;-82
2023/04/24 08:52:53;;;;;;;;;;;;;;;19.38;39.32;100575.03;105553;1288;62107;-82
2023/04/24 08:55:20;;;;;;;;;;;;;;;19.40;39.30;100570.73;105118;1283;61989;-82
2023/04/24 08:57:45;;;;;;;;;;;;;;;19.42;39.21;100570.79;106769;1284;72449;-83
2023/04/24 09:00:11;;;;;;;;;;;;;;;19.41;39.17;100571.59;106804;1283;59881;-83
2023/04/24 09:02:38;;;;;;;;;;;;;;;19.38;39.04;100569.61;106800;1283;60131;-82
2023/04/24 09:05:05;;;;;;;;;;;;;;;19.39;39.13;100564.26;106580;1288;61403;-83
2023/04/24 09:07:30;;;;;;;;;;;;;;;19.37;39.05;100567.19;106638;1283;60839;-83
2023/04/24 09:09:56;;;;;;;;;;;;;;;19.37;39.15;100560.06;106689;1286;59871;-82
2023/04/24 09:12:21;;;;;;;;;;;;;;;19.40;38.99;100560.40;106772;1283;60057;-82
2023/04/24 09:14:47;;;;;;;;;;;;;;;19.45;38.87;100559.01;106817;1285;60140;-82
2023/04/24 09:17:12;;;;;;;;;;;;;;;19.47;38.83;100559.46;106714;1283;60765;-82
2023/04/24 09:19:37;;;;;;;;;;;;;;;19.49;39.01;100563.73;105917;1283;62205;-82
2023/04/24 09:22:06;;;;;;;;;;;;;;;19.50;38.79;100559.74;105053;1287;62492;-82
2023/04/24 09:24:33;;;;;;;;;;;;;;;19.46;38.78;100552.50;104764;1288;62098;-82
2023/04/24 09:26:58;;;;;;;;;;;;;;;19.49;38.64;100552.15;105106;1283;62142;-80
2023/04/24 09:29:24;;;;;;;;;;;;;;;19.52;38.79;100551.94;104914;1286;62098;-81
2023/04/24 09:31:50;;;;;;;;;;;;;;;19.54;38.75;100550.90;104722;1283;63430;-81
2023/04/24 09:34:18;;;;;;;;;;;;;;;19.55;38.66;100555.32;105162;1283;62142;-81
2023/04/24 09:36:43;;;;;;;;;;;;;;;19.51;38.48;100555.23;106468;1284;62197;-82
2023/04/24 09:39:15;;;;;;;;;;;;;;;19.48;38.37;100548.47;104452;1287;62175;-82
2023/04/24 09:41:47;;;;;;;;;;;;;;;19.43;38.33;100544.48;104837;1284;75581;-80
2023/04/24 09:44:17;;;;;;;;;;;;;;;19.42;38.26;100543.67;104773;1287;62133;-81
2023/04/24 09:46:43;;;;;;;;;;;;;;;19.46;38.33;100541.48;104301;1282;62015;-82
2023/04/24 09:49:10;;;;;;;;;;;;;;;19.49;38.29;100536.45;104581;1282;62080;-83
2023/04/24 09:51:37;;;;;;;;;;;;;;;19.52;38.41;100533.53;104478;1286;76094;-83
2023/04/24 09:54:03;;;;;;;;;;;;;;;19.51;38.18;100529.89;104761;1283;62088;-81
2023/04/24 09:56:29;;;;;;;;;;;;;;;19.46;38.07;100525.91;104785;1286;62185;-81
2023/04/24 09:58:54;;;;;;;;;;;;;;;19.47;38.10;100525.50;104413;1288;62095;-82
2023/04/24 10:01:32;;;;;;;;;;;;;;;19.51;38.06;100526.64;104372;1289;62170;-82
2023/04/24 10:03:58;;;;;;;;;;;;;;;19.54;38.23;100525.56;104326;1283;62169;-81
2023/04/24 10:06:30;;;;;;;;;;;;;;;19.57;38.18;100521.96;104224;1282;62204;-81
2023/04/24 10:08:58;;;;;;;;;;;;;;;19.61;38.08;100515.25;105180;1283;72376;-81
2023/04/24 10:11:24;;;;;;;;;;;;;;;19.65;38.16;100505.91;104459;1288;76127;-81
2023/04/24 10:13:49;;;;;;;;;;;;;;;19.68;38.24;100509.95;104256;1288;62199;-81
2023/04/24 10:16:15;;;;;;;;;;;;;;;19.72;38.17;100502.73;104342;1282;63420;-82
2023/04/24 10:18:41;;;;;;;;;;;;;;;19.74;38.18;100496.80;104457;1288;62274;-81
2023/04/24 10:21:06;;;;;;;;;;;;;;;19.77;38.22;100495.00;104312;1288;62239;-82
2023/04/24 10:23:32;;;;;;;;;;;;;;;19.79;38.20;100495.44;104317;1289;62162;-83
2023/04/24 10:25:57;;;;;;;;;;;;;;;19.81;38.06;100495.71;104153;1283;63372;-82
2023/04/24 10:28:23;;;;;;;;;;;;;;;19.82;38.04;100492.40;103962;1288;62203;-82
2023/04/24 10:30:49;;;;;;;;;;;;;;;19.84;38.13;100489.08;103940;1289;62212;-83
2023/04/24 10:33:16;;;;;;;;;;;;;;;19.85;38.19;100491.65;103955;1282;62522;-83
2023/04/24 10:35:45;;;;;;;;;;;;;;;19.85;38.04;100488.77;103996;1287;62206;-82
2023/04/24 10:38:14;;;;;;;;;;;;;;;19.86;38.19;100489.05;104297;1286;62682;-82
2023/04/24 10:40:39;;;;;;;;;;;;;;;19.87;38.15;100486.14;104442;1283;72511;-82
2023/04/24 10:43:07;;;;;;;;;;;;;;;19.88;38.00;100486.98;104151;1288;62193;-82
2023/04/24 10:45:33;;;;;;;;;;;;;;;19.88;38.09;100482.84;103934;1283;62074;-82
2023/04/24 10:48:01;;;;;;;;;;;;;;;19.89;38.05;100483.67;103895;1288;63470;-82
2023/04/24 10:50:30;;;;;;;;;;;;;;;19.90;37.98;100483.76;103984;1283;62096;-82
2023/04/24 10:53:12;;;;;;;;;;;;;;;19.90;38.14;100478.06;104644;1288;76296;-83
2023/04/24 10:55:42;;;;;;;;;;;;;;;19.91;38.16;100484.61;104275;1286;62086;-82
2023/04/24 10:58:07;;;;;;;;;;;;;;;19.91;38.20;100481.74;104277;1283;62111;-82
2023/04/24 11:00:33;;;;;;;;;;;;;;;19.92;38.13;100477.40;104166;1283;63242;-82
2023/04/24 11:02:59;;;;;;;;;;;;;;;19.92;37.97;100474.67;103999;1286;62098;-82
2023/04/24 11:05:44;;;;;;;;;;;;;;;19.92;38.07;100469.51;103960;1283;63284;-83
2023/04/24 11:08:13;;;;;;;;;;;;;;;19.93;38.04;100473.56;104029;1282;61954;-82
2023/04/24 11:10:43;;;;;;;;;;;;;;;19.93;38.07;100471.23;103842;1288;73443;-82
2023/04/24 11:13:09;;;;;;;;;;;;;;;19.94;38.07;100474.61;103868;1285;76391;-83
2023/04/24 11:15:34;;;;;;;;;;;;;;;19.94;37.93;100468.16;103848;1288;62725;-82
2023/04/24 11:18:00;;;;;;;;;;;;;;;19.94;38.02;100470.66;103756;1289;63439;-83
2023/04/24 11:20:26;;;;;;;;;;;;;;;19.94;37.81;100467.10;103872;1289;62624;-82
2023/04/24 11:22:52;;;;;;;;;;;;;;;19.94;37.98;100463.89;104040;1283;62168;-82
2023/04/24 11:25:18;;;;;;;;;;;;;;;19.93;37.95;100458.71;104233;1287;62180;-82
2023/04/24 11:27:44;;;;;;;;;;;;;;;19.93;38.04;100452.28;104333;1288;62184;-82
2023/04/24 11:30:10;;;;;;;;;;;;;;;19.94;37.97;100443.67;104083;1282;62100;-82
2023/04/24 11:32:41;;;;;;;;;;;;;;;19.94;37.95;100445.48;104064;1285;62117;-82
2023/04/24 11:35:08;;;;;;;;;;;;;;;19.94;37.99;100443.84;104236;1288;77266;-82
2023/04/24 11:37:35;;;;;;;;;;;;;;;19.95;38.08;100438.83;104577;1285;62188;-82
2023/04/24 11:40:02;;;;;;;;;;;;;;;19.95;38.15;100440.39;103966;1288;62187;-81
2023/04/24 11:42:28;;;;;;;;;;;;;;;19.96;38.29;100429.29;104527;1287;72570;-81
2023/04/24 11:44:55;;;;;;;;;;;;;;;19.97;38.21;100426.52;103921;1282;62628;-83
2023/04/24 11:47:27;;;;;;;;;;;;;;;20.00;38.31;100423.27;103927;1288;62106;-82
2023/04/24 11:49:52;;;;;;;;;;;;;;;20.02;38.54;100418.61;104174;1286;62184;-83
2023/04/24 11:52:19;;;;;;;;;;;;;;;20.05;38.48;100412.38;103985;1282;62747;-83
2023/04/24 11:54:50;;;;;;;;;;;;;;;20.06;38.63;100407.29;104190;1283;62199;-81
2023/04/24 11:57:20;;;;;;;;;;;;;;;20.06;38.65;100407.45;104025;1284;62209;-81
2023/04/24 11:59:46;;;;;;;;;;;;;;;20.06;38.45;100404.55;104038;1288;62075;-83
2023/04/24 12:02:22;;;;;;;;;;;;;;;20.06;38.58;100402.95;104069;1283;62184;-83
2023/04/24 12:04:48;;;;;;;;;;;;;;;20.06;38.70;100398.29;103752;1287;76067;-82
2023/04/24 12:07:13;;;;;;;;;;;;;;;20.06;38.47;100401.14;103889;1286;62264;-83
2023/04/24 12:09:55;;;;;;;;;;;;;;;20.07;38.62;100397.20;103852;1282;63401;-82
2023/04/24 12:12:20;;;;;;;;;;;;;;;20.07;38.48;100391.66;103888;1288;73474;-83
2023/04/24 12:14:49;;;;;;;;;;;;;;;20.07;38.59;100387.88;103829;1288;62300;-83
2023/04/24 12:17:16;;;;;;;;;;;;;;;20.07;38.47;100385.57;103786;1288;62209;-83
2023/04/24 12:19:45;;;;;;;;;;;;;;;20.07;38.55;100378.57;103759;1286;62641;-82
2023/04/24 12:22:14;;;;;;;;;;;;;;;20.07;38.51;100376.96;103705;1285;72530;-83